createdAt,value
2019-04-30T00:01:48.662Z,10.50
2019-04-30T00:04:25.271Z,10.50
2019-04-30T00:06:55.636Z,10.40
2019-04-30T00:09:26.407Z,10.40
2019-04-30T00:12:01.035Z,10.40
2019-04-30T00:14:32.509Z,10.30
2019-04-30T00:16:58.614Z,10.30
2019-04-30T00:19:28.009Z,10.30
2019-04-30T00:22:00.309Z,10.30
2019-04-30T00:24:28.472Z,10.30
2019-04-30T00:26:57.878Z,10.20
2019-04-30T00:29:30.848Z,10.20
2019-04-30T00:32:04.569Z,10.20
2019-04-30T00:34:30.925Z,10.20
2019-04-30T00:37:00.980Z,10.20
2019-04-30T00:39:30.352Z,10.10
2019-04-30T00:41:59.737Z,10.10
2019-04-30T00:44:29.328Z,10.10
2019-04-30T00:47:00.664Z,10.10
2019-04-30T00:49:29.835Z,10.10
2019-04-30T00:51:59.197Z,10.00
2019-04-30T00:54:30.877Z,10.00
2019-04-30T00:57:04.532Z,10.00
2019-04-30T00:59:31.133Z,9.90
2019-04-30T01:02:02.146Z,9.90
2019-04-30T01:04:39.003Z,9.90
2019-04-30T01:07:09.503Z,9.90
2019-04-30T01:09:39.736Z,9.80
2019-04-30T01:12:10.036Z,9.80
2019-04-30T01:14:39.405Z,9.80
2019-04-30T01:17:12.118Z,9.80
2019-04-30T01:19:39.947Z,9.70
2019-04-30T01:22:09.323Z,9.70
2019-04-30T01:24:38.803Z,9.70
2019-04-30T01:27:10.662Z,9.70
2019-04-30T01:29:44.108Z,9.70
2019-04-30T01:32:17.620Z,9.60
2019-04-30T01:34:44.372Z,9.60
2019-04-30T01:37:13.686Z,9.60
2019-04-30T01:39:43.062Z,9.60
2019-04-30T01:42:12.428Z,9.60
2019-04-30T01:44:43.489Z,9.50
2019-04-30T01:47:13.810Z,9.50
2019-04-30T01:49:44.824Z,9.50
2019-04-30T01:52:14.379Z,9.50
2019-04-30T01:54:43.745Z,9.50
2019-04-30T01:57:30.768Z,9.40
2019-04-30T02:00:04.490Z,9.40
2019-04-30T02:02:35.485Z,9.40
2019-04-30T02:05:08.946Z,9.40
2019-04-30T02:07:38.794Z,9.40
2019-04-30T02:12:45.532Z,9.30
2019-04-30T02:15:14.954Z,9.30
2019-04-30T02:17:44.315Z,9.20
2019-04-30T02:20:14.869Z,9.20
2019-04-30T02:22:44.302Z,9.20
2019-04-30T02:25:15.378Z,9.20
2019-04-30T02:27:44.790Z,9.20
2019-04-30T02:30:14.543Z,9.10
2019-04-30T02:32:43.849Z,9.10
2019-04-30T02:35:15.000Z,9.10
2019-04-30T02:38:01.969Z,9.10
2019-04-30T02:40:35.274Z,9.00
2019-04-30T02:43:05.946Z,9.00
2019-04-30T02:45:40.152Z,9.00
2019-04-30T02:48:11.749Z,8.90
2019-04-30T02:50:43.957Z,9.00
2019-04-30T02:53:50.532Z,8.90
2019-04-30T02:56:26.349Z,8.90
2019-04-30T02:58:54.025Z,8.90
2019-04-30T03:01:24.063Z,8.80
2019-04-30T03:03:53.415Z,8.80
2019-04-30T03:06:23.751Z,8.80
2019-04-30T03:08:53.438Z,8.80
2019-04-30T03:11:22.809Z,8.80
2019-04-30T03:13:51.992Z,8.70
2019-04-30T03:16:23.005Z,8.70
2019-04-30T03:18:54.012Z,8.70
2019-04-30T03:21:40.955Z,8.70
2019-04-30T03:24:11.227Z,8.70
2019-04-30T03:26:40.791Z,8.60
2019-04-30T03:29:11.124Z,8.60
2019-04-30T03:31:43.765Z,8.60
2019-04-30T03:34:18.387Z,8.60
2019-04-30T03:36:43.328Z,8.60
2019-04-30T03:39:12.689Z,8.50
2019-04-30T03:41:42.074Z,8.50
2019-04-30T03:44:21.648Z,8.50
2019-04-30T03:46:42.530Z,8.50
2019-04-30T03:49:13.324Z,8.40
2019-04-30T03:51:43.346Z,8.40
2019-04-30T03:54:12.711Z,8.40
2019-04-30T03:56:43.047Z,8.40
2019-04-30T03:59:12.689Z,8.40
2019-04-30T04:01:43.694Z,8.40
2019-04-30T04:04:20.299Z,8.30
2019-04-30T04:07:07.259Z,8.30
2019-04-30T04:09:49.703Z,8.30
2019-04-30T04:12:21.249Z,8.30
2019-04-30T04:14:51.132Z,8.30
2019-04-30T04:17:21.400Z,8.30
2019-04-30T04:19:53.482Z,8.30
2019-04-30T04:22:22.850Z,8.30
2019-04-30T04:24:52.793Z,8.30
2019-04-30T04:27:22.228Z,8.30
2019-04-30T04:29:51.604Z,8.30
2019-04-30T04:32:24.259Z,8.40
2019-04-30T04:34:52.071Z,8.40
2019-04-30T04:37:21.440Z,8.40
2019-04-30T04:39:51.150Z,8.40
2019-04-30T04:42:20.529Z,8.40
2019-04-30T04:44:50.469Z,8.40
2019-04-30T04:47:20.442Z,8.40
2019-04-30T04:49:53.551Z,8.50
2019-04-30T04:52:21.995Z,8.50
2019-04-30T04:54:52.554Z,8.50
2019-04-30T04:57:22.994Z,8.50
2019-04-30T04:59:52.667Z,8.50
2019-04-30T05:02:32.557Z,8.60
2019-04-30T05:05:00.499Z,8.60
2019-04-30T05:07:29.856Z,8.60
2019-04-30T05:10:00.958Z,8.70
2019-04-30T05:12:30.514Z,8.70
2019-04-30T05:14:59.969Z,8.80
2019-04-30T05:17:31.991Z,8.80
2019-04-30T05:20:00.392Z,8.80
2019-04-30T05:22:29.748Z,8.90
2019-04-30T05:24:59.210Z,8.90
2019-04-30T05:27:30.212Z,9.00
2019-04-30T05:29:59.643Z,9.20
2019-04-30T05:32:29.395Z,9.30
2019-04-30T05:34:58.781Z,9.50
2019-04-30T05:37:28.423Z,9.60
2019-04-30T05:40:00.907Z,9.70
2019-04-30T05:42:29.493Z,9.90
2019-04-30T05:44:59.296Z,10.00
2019-04-30T05:47:29.220Z,10.10
2019-04-30T05:49:58.661Z,10.30
2019-04-30T05:52:29.537Z,10.40
2019-04-30T05:55:00.177Z,10.50
2019-04-30T05:57:30.760Z,10.60
2019-04-30T06:00:00.129Z,10.80
2019-04-30T06:02:33.584Z,10.90
2019-04-30T06:05:00.785Z,11.00
2019-04-30T06:07:30.209Z,11.10
2019-04-30T06:10:01.435Z,11.20
2019-04-30T06:12:49.318Z,11.30
2019-04-30T06:15:20.554Z,11.40
2019-04-30T06:17:59.644Z,11.50
2019-04-30T06:20:22.679Z,11.60
2019-04-30T06:22:53.365Z,11.70
2019-04-30T06:25:31.711Z,11.80
2019-04-30T06:27:54.553Z,11.90
2019-04-30T06:30:25.941Z,12.00
2019-04-30T06:32:55.842Z,12.00
2019-04-30T06:35:25.723Z,12.10
2019-04-30T06:37:55.163Z,12.20
2019-04-30T06:40:24.547Z,12.20
2019-04-30T06:42:54.476Z,12.30
2019-04-30T06:45:24.045Z,12.40
2019-04-30T06:47:54.566Z,12.40
2019-04-30T06:50:23.937Z,12.50
2019-04-30T06:52:56.851Z,12.50
2019-04-30T06:55:24.433Z,12.60
2019-04-30T06:57:53.801Z,12.70
2019-04-30T07:00:36.670Z,12.70
2019-04-30T07:03:09.359Z,12.80
2019-04-30T07:05:38.943Z,12.80
2019-04-30T07:08:37.319Z,12.90
2019-04-30T07:11:21.709Z,12.90
2019-04-30T07:13:52.378Z,13.00
2019-04-30T07:16:21.874Z,13.00
2019-04-30T07:18:51.240Z,13.00
2019-04-30T07:21:20.625Z,13.10
2019-04-30T07:23:49.991Z,13.20
2019-04-30T07:26:24.253Z,13.20
2019-04-30T07:28:54.894Z,13.20
2019-04-30T07:31:21.894Z,13.30
2019-04-30T07:33:53.745Z,13.30
2019-04-30T07:36:22.410Z,13.30
2019-04-30T07:38:56.469Z,13.40
2019-04-30T07:41:22.830Z,13.40
2019-04-30T07:43:53.042Z,13.50
2019-04-30T07:46:22.441Z,13.50
2019-04-30T07:48:51.859Z,13.60
2019-04-30T07:51:22.067Z,13.70
2019-04-30T07:53:52.046Z,13.70
2019-04-30T07:56:27.857Z,13.80
2019-04-30T07:58:52.520Z,13.80
2019-04-30T08:01:21.917Z,13.90
2019-04-30T08:03:55.924Z,14.00
2019-04-30T08:06:25.441Z,14.10
2019-04-30T08:08:59.859Z,14.10
2019-04-30T08:11:26.550Z,14.20
2019-04-30T08:13:56.498Z,14.30
2019-04-30T08:16:28.795Z,14.40
2019-04-30T08:18:59.149Z,14.50
2019-04-30T08:21:29.160Z,14.60
2019-04-30T08:23:59.305Z,14.70
2019-04-30T08:26:29.689Z,14.80
2019-04-30T08:28:59.771Z,14.90
2019-04-30T08:31:29.371Z,14.90
2019-04-30T08:33:59.216Z,15.00
2019-04-30T08:36:29.776Z,15.00
2019-04-30T08:38:59.861Z,15.10
2019-04-30T08:41:29.489Z,15.20
2019-04-30T08:43:59.770Z,15.20
2019-04-30T08:46:29.504Z,15.30
2019-04-30T08:48:58.970Z,15.40
2019-04-30T08:51:30.936Z,15.50
2019-04-30T08:53:59.496Z,15.50
2019-04-30T08:56:29.547Z,15.70
2019-04-30T08:58:59.539Z,15.70
2019-04-30T09:01:29.485Z,15.80
2019-04-30T09:03:59.777Z,15.90
2019-04-30T09:06:31.457Z,16.00
2019-04-30T09:09:01.867Z,16.10
2019-04-30T09:11:42.919Z,16.20
2019-04-30T09:14:02.378Z,16.20
2019-04-30T09:16:32.111Z,16.30
2019-04-30T09:19:01.453Z,16.40
2019-04-30T09:21:30.832Z,16.40
2019-04-30T09:24:00.198Z,16.50
2019-04-30T09:26:29.564Z,16.50
2019-04-30T09:28:59.620Z,16.60
2019-04-30T09:31:29.759Z,16.70
2019-04-30T09:34:00.942Z,16.80
2019-04-30T09:36:30.480Z,16.90
2019-04-30T09:39:01.489Z,16.90
2019-04-30T09:41:30.922Z,17.00
2019-04-30T09:44:00.619Z,17.00
2019-04-30T09:46:30.161Z,17.10
2019-04-30T09:48:59.852Z,17.20
2019-04-30T09:51:30.873Z,17.20
2019-04-30T09:54:03.625Z,17.30
2019-04-30T09:56:31.884Z,17.30
2019-04-30T09:59:01.583Z,17.40
2019-04-30T10:01:32.962Z,17.40
2019-04-30T10:04:02.775Z,17.50
2019-04-30T10:06:39.720Z,17.60
2019-04-30T10:09:09.665Z,17.60
2019-04-30T10:11:43.215Z,17.70
2019-04-30T10:14:12.590Z,17.70
2019-04-30T10:16:43.643Z,17.80
2019-04-30T10:19:14.966Z,17.80
2019-04-30T10:21:44.542Z,17.90
2019-04-30T10:24:15.721Z,18.00
2019-04-30T10:26:45.040Z,18.00
2019-04-30T10:29:16.063Z,18.10
2019-04-30T10:31:45.420Z,18.20
2019-04-30T10:34:15.437Z,18.20
2019-04-30T10:36:44.804Z,18.30
2019-04-30T10:39:14.177Z,18.30
2019-04-30T10:41:43.549Z,18.30
2019-04-30T10:44:12.983Z,18.40
2019-04-30T10:46:42.523Z,18.50
2019-04-30T10:49:12.013Z,18.50
2019-04-30T10:51:41.404Z,18.60
2019-04-30T10:54:22.771Z,18.60
2019-04-30T10:56:42.530Z,18.60
2019-04-30T10:59:11.906Z,18.70
2019-04-30T11:01:41.286Z,18.70
2019-04-30T11:04:11.419Z,18.70
2019-04-30T11:06:40.856Z,18.80
2019-04-30T11:09:10.371Z,18.80
2019-04-30T11:11:40.779Z,18.90
2019-04-30T11:14:10.159Z,18.90
2019-04-30T11:16:39.532Z,18.90
2019-04-30T11:19:09.567Z,19.00
2019-04-30T11:21:39.323Z,19.00
2019-04-30T11:24:09.466Z,19.10
2019-04-30T11:26:40.659Z,19.10
2019-04-30T11:29:10.890Z,19.10
2019-04-30T11:31:54.209Z,19.20
2019-04-30T11:34:23.835Z,19.20
2019-04-30T11:36:53.205Z,19.30
2019-04-30T11:39:23.395Z,19.30
2019-04-30T11:41:53.323Z,19.40
2019-04-30T11:44:30.978Z,19.50
2019-04-30T11:47:22.425Z,19.50
2019-04-30T11:49:51.801Z,19.60
2019-04-30T11:52:21.788Z,19.60
2019-04-30T11:54:54.445Z,19.60
2019-04-30T11:57:22.913Z,19.60
2019-04-30T11:59:52.349Z,19.70
2019-04-30T12:02:23.891Z,19.70
2019-04-30T12:04:53.210Z,19.80
2019-04-30T12:07:24.218Z,19.80
2019-04-30T12:10:01.140Z,19.90
2019-04-30T12:12:30.523Z,19.90
2019-04-30T12:15:02.800Z,20.00
2019-04-30T12:17:32.292Z,20.00
2019-04-30T12:20:01.657Z,20.10
2019-04-30T12:22:31.041Z,20.10
2019-04-30T12:25:04.865Z,20.10
2019-04-30T12:27:31.891Z,20.10
2019-04-30T12:30:01.264Z,20.20
2019-04-30T12:32:30.903Z,20.10
2019-04-30T12:35:00.273Z,20.20
2019-04-30T12:37:29.656Z,20.20
2019-04-30T12:39:59.495Z,20.20
2019-04-30T12:42:29.002Z,20.20
2019-04-30T12:44:59.501Z,20.20
2019-04-30T12:47:30.812Z,20.30
2019-04-30T12:50:01.808Z,20.30
2019-04-30T12:52:45.443Z,20.30
2019-04-30T12:55:31.524Z,20.40
2019-04-30T12:58:02.566Z,20.40
2019-04-30T13:00:32.209Z,20.40
2019-04-30T13:03:01.725Z,20.50
2019-04-30T13:05:31.146Z,20.50
2019-04-30T13:08:01.139Z,20.50
2019-04-30T13:10:31.307Z,20.60
2019-04-30T13:13:01.510Z,20.70
2019-04-30T13:15:31.338Z,20.70
2019-04-30T13:18:01.142Z,20.70
2019-04-30T13:20:31.285Z,20.80
2019-04-30T13:23:00.645Z,20.90
2019-04-30T13:25:35.345Z,20.90
2019-04-30T13:28:03.157Z,20.90
2019-04-30T13:30:32.523Z,20.90
2019-04-30T13:33:09.583Z,21.00
2019-04-30T13:35:39.011Z,21.00
2019-04-30T13:38:15.770Z,21.00
2019-04-30T13:40:55.755Z,21.00
2019-04-30T13:43:44.987Z,21.10
2019-04-30T13:46:14.680Z,21.10
2019-04-30T13:48:44.055Z,21.10
2019-04-30T13:51:13.417Z,21.20
2019-04-30T13:53:42.825Z,21.30
2019-04-30T13:56:12.200Z,21.40
2019-04-30T13:58:41.569Z,21.50
2019-04-30T14:01:10.950Z,21.60
2019-04-30T14:03:53.997Z,21.60
2019-04-30T14:06:28.968Z,21.70
2019-04-30T14:09:00.918Z,21.80
2019-04-30T14:11:30.294Z,21.80
2019-04-30T14:13:59.671Z,21.80
2019-04-30T14:16:29.052Z,21.90
2019-04-30T14:18:59.603Z,21.90
2019-04-30T14:21:34.711Z,22.00
2019-04-30T14:24:00.597Z,22.00
2019-04-30T14:26:29.980Z,22.00
2019-04-30T14:28:59.371Z,22.00
2019-04-30T14:31:28.893Z,22.00
2019-04-30T14:33:59.343Z,22.00
2019-04-30T14:36:29.242Z,22.00
2019-04-30T14:39:13.072Z,21.90
2019-04-30T14:41:32.506Z,21.90
2019-04-30T14:44:03.875Z,21.90
2019-04-30T14:46:41.380Z,21.80
2019-04-30T14:49:16.537Z,21.70
2019-04-30T14:51:46.547Z,21.70
2019-04-30T14:54:20.438Z,21.70
2019-04-30T14:56:54.001Z,21.60
2019-04-30T14:59:33.954Z,21.60
2019-04-30T15:02:21.374Z,21.60
2019-04-30T15:04:50.741Z,21.60
2019-04-30T15:07:20.115Z,21.60
2019-04-30T15:09:49.580Z,21.70
2019-04-30T15:12:19.206Z,21.70
2019-04-30T15:14:49.255Z,21.70
2019-04-30T15:17:18.887Z,21.70
2019-04-30T15:19:49.355Z,21.70
2019-04-30T15:22:19.739Z,21.70
2019-04-30T15:24:49.283Z,21.70
2019-04-30T15:27:19.191Z,21.70
2019-04-30T15:29:56.703Z,21.70
2019-04-30T15:32:19.938Z,21.70
2019-04-30T15:34:49.291Z,21.70
2019-04-30T15:37:23.506Z,21.70
2019-04-30T15:39:52.265Z,21.60
2019-04-30T15:42:22.757Z,21.60
2019-04-30T15:44:52.126Z,21.60
2019-04-30T15:47:23.076Z,21.60
2019-04-30T15:49:52.458Z,21.50
2019-04-30T15:52:21.972Z,21.60
2019-04-30T15:54:51.377Z,21.50
2019-04-30T15:57:20.759Z,21.50
2019-04-30T15:59:50.129Z,21.10
2019-04-30T16:02:28.755Z,21.40
2019-04-30T16:05:02.751Z,21.30
2019-04-30T16:07:32.114Z,21.30
2019-04-30T16:10:03.190Z,21.30
2019-04-30T16:15:14.397Z,21.20
2019-04-30T16:17:45.439Z,21.20
2019-04-30T16:20:15.448Z,21.20
2019-04-30T16:22:44.839Z,21.10
2019-04-30T16:25:14.431Z,21.10
2019-04-30T16:27:43.807Z,21.10
2019-04-30T16:30:15.485Z,21.00
2019-04-30T16:32:45.099Z,21.00
2019-04-30T16:35:14.613Z,21.00
2019-04-30T16:37:43.986Z,20.90
2019-04-30T16:40:13.833Z,20.90
2019-04-30T16:42:43.202Z,20.90
2019-04-30T16:45:13.590Z,20.90
2019-04-30T16:47:42.960Z,20.90
2019-04-30T16:50:12.397Z,20.90
2019-04-30T16:52:41.955Z,20.90
2019-04-30T16:55:11.962Z,20.90
2019-04-30T16:57:41.444Z,20.90
2019-04-30T17:00:15.405Z,20.90
2019-04-30T17:02:45.696Z,20.90
2019-04-30T17:05:19.480Z,20.90
2019-04-30T17:07:50.698Z,20.90
2019-04-30T17:10:21.865Z,20.90
2019-04-30T17:12:59.306Z,20.90
2019-04-30T17:15:32.948Z,20.90
2019-04-30T17:18:03.104Z,20.90
2019-04-30T17:20:32.788Z,21.00
2019-04-30T17:23:02.153Z,21.00
2019-04-30T17:25:31.533Z,21.10
2019-04-30T17:28:01.507Z,21.20
2019-04-30T17:30:30.957Z,21.20
2019-04-30T17:33:00.316Z,21.20
2019-04-30T17:35:29.941Z,21.30
2019-04-30T17:37:59.315Z,21.30
2019-04-30T17:40:29.216Z,21.30
2019-04-30T17:42:58.951Z,21.30
2019-04-30T17:45:29.206Z,21.30
2019-04-30T17:47:58.580Z,21.30
2019-04-30T17:50:29.577Z,21.20
2019-04-30T17:53:00.670Z,21.10
2019-04-30T17:55:30.161Z,21.10
2019-04-30T17:57:59.545Z,21.00
2019-04-30T18:00:30.559Z,20.90
2019-04-30T18:02:59.925Z,20.90
2019-04-30T18:05:29.778Z,20.80
2019-04-30T18:07:59.171Z,20.80
2019-04-30T18:10:28.714Z,20.70
2019-04-30T18:12:58.110Z,20.60
2019-04-30T18:15:29.125Z,20.60
2019-04-30T18:18:00.130Z,20.50
2019-04-30T18:20:43.124Z,20.40
2019-04-30T18:23:27.211Z,20.40
2019-04-30T18:25:58.407Z,20.30
2019-04-30T18:28:29.162Z,20.20
2019-04-30T18:30:59.105Z,20.10
2019-04-30T18:33:28.595Z,20.00
2019-04-30T18:35:59.663Z,19.90
2019-04-30T18:38:31.046Z,19.90
2019-04-30T18:41:00.618Z,19.80
2019-04-30T18:43:29.984Z,19.70
2019-04-30T18:46:00.709Z,19.60
2019-04-30T18:48:30.203Z,19.60
2019-04-30T18:50:59.603Z,19.50
2019-04-30T18:53:30.617Z,19.40
2019-04-30T18:55:59.997Z,19.40
2019-04-30T18:58:39.275Z,19.30
2019-04-30T19:01:00.457Z,19.30
2019-04-30T19:03:30.022Z,19.20
2019-04-30T19:06:01.037Z,19.10
2019-04-30T19:08:32.043Z,19.10
2019-04-30T19:11:05.748Z,19.00
2019-04-30T19:13:51.680Z,18.90
2019-04-30T19:16:25.771Z,18.80
2019-04-30T19:19:01.609Z,18.80
2019-04-30T19:21:31.135Z,18.70
2019-04-30T19:24:01.739Z,18.70
2019-04-30T19:26:31.170Z,18.60
2019-04-30T19:29:00.546Z,18.60
2019-04-30T19:31:29.918Z,18.50
2019-04-30T19:33:59.279Z,18.50
2019-04-30T19:36:37.418Z,18.40
2019-04-30T19:39:00.234Z,18.30
2019-04-30T19:41:29.600Z,18.30
2019-04-30T19:43:59.323Z,18.30
2019-04-30T19:46:29.407Z,18.20
2019-04-30T19:48:58.899Z,18.20
2019-04-30T19:51:29.597Z,18.10
2019-04-30T19:53:59.883Z,18.10
2019-04-30T19:56:30.410Z,18.00
2019-04-30T19:59:05.134Z,18.00
2019-04-30T20:01:32.198Z,18.00
2019-04-30T20:04:01.564Z,17.90
2019-04-30T20:06:31.013Z,17.90
2019-04-30T20:09:00.748Z,17.80
2019-04-30T20:11:30.229Z,17.80
2019-04-30T20:13:59.611Z,17.70
2019-04-30T20:16:28.969Z,17.70
2019-04-30T20:18:59.215Z,17.60
2019-04-30T20:21:45.321Z,17.60
2019-04-30T20:24:01.436Z,17.50
2019-04-30T20:26:32.069Z,17.40
2019-04-30T20:29:01.443Z,17.40
2019-04-30T20:31:30.818Z,17.30
2019-04-30T20:34:01.529Z,17.30
2019-04-30T20:36:31.173Z,17.20
2019-04-30T20:39:02.249Z,17.20
2019-04-30T20:41:33.325Z,17.20
2019-04-30T20:44:02.748Z,17.00
2019-04-30T20:46:35.173Z,17.00
2019-04-30T20:49:03.183Z,17.00
2019-04-30T20:51:34.151Z,17.00
2019-04-30T20:54:03.517Z,17.00
2019-04-30T20:56:32.941Z,16.90
2019-04-30T20:59:06.320Z,16.90
2019-04-30T21:01:33.422Z,16.90
2019-04-30T21:04:02.790Z,16.90
2019-04-30T21:06:32.172Z,16.90
2019-04-30T21:09:01.546Z,17.00
2019-04-30T21:11:30.916Z,17.00
2019-04-30T21:14:00.442Z,17.00
2019-04-30T21:16:29.808Z,17.10
2019-04-30T21:18:59.174Z,17.10
2019-04-30T21:21:28.885Z,17.20
2019-04-30T21:23:58.499Z,17.20
2019-04-30T21:26:27.895Z,17.20
2019-04-30T21:29:10.681Z,17.30
2019-04-30T21:31:31.166Z,17.30
2019-04-30T21:34:02.269Z,17.40
2019-04-30T21:36:31.677Z,17.40
2019-04-30T21:39:01.329Z,17.40
2019-04-30T21:41:30.708Z,17.40
2019-04-30T21:44:00.103Z,17.50
2019-04-30T21:46:29.514Z,17.50
2019-04-30T21:48:58.914Z,17.50
2019-04-30T21:51:28.294Z,17.50
2019-04-30T21:53:57.707Z,17.60
2019-04-30T21:56:27.125Z,17.60
2019-04-30T21:58:56.529Z,17.60
2019-04-30T22:01:25.999Z,17.60
2019-04-30T22:03:55.332Z,17.60
2019-04-30T22:06:24.714Z,17.60
2019-04-30T22:08:54.077Z,17.60
2019-04-30T22:11:23.454Z,17.60
2019-04-30T22:13:52.910Z,17.60
2019-04-30T22:16:22.280Z,17.60
2019-04-30T22:18:51.667Z,17.70
2019-04-30T22:21:21.169Z,17.70
2019-04-30T22:23:50.539Z,17.70
2019-04-30T22:26:19.916Z,17.70
2019-04-30T22:28:49.558Z,17.70
2019-04-30T22:31:20.153Z,17.70
2019-04-30T22:33:49.539Z,17.70
2019-04-30T22:36:21.435Z,17.70
2019-04-30T22:38:52.444Z,17.70
2019-04-30T22:41:26.031Z,17.70
2019-04-30T22:43:55.880Z,17.70
2019-04-30T22:46:25.257Z,17.70
2019-04-30T22:48:54.614Z,17.70
2019-04-30T22:51:24.005Z,17.70
2019-04-30T22:53:53.371Z,17.70
2019-04-30T22:56:22.746Z,17.70
2019-04-30T22:58:52.128Z,17.80
2019-04-30T23:01:28.976Z,17.80
2019-04-30T23:04:00.022Z,17.70
2019-04-30T23:06:29.392Z,17.70
2019-04-30T23:08:58.765Z,17.80
2019-04-30T23:11:28.159Z,17.80
2019-04-30T23:13:57.511Z,17.70
2019-04-30T23:16:26.894Z,17.80
2019-04-30T23:18:56.275Z,17.70
2019-04-30T23:21:25.650Z,17.70
2019-04-30T23:23:55.029Z,17.80
2019-04-30T23:26:24.962Z,17.70
2019-04-30T23:28:54.331Z,17.70
2019-04-30T23:31:23.704Z,17.80
2019-04-30T23:33:53.897Z,17.80
2019-04-30T23:36:23.267Z,17.80
2019-04-30T23:38:52.642Z,17.80
2019-04-30T23:41:22.554Z,17.80
2019-04-30T23:43:51.915Z,17.80
2019-04-30T23:46:21.296Z,17.80
2019-04-30T23:48:51.142Z,17.70
2019-04-30T23:51:20.520Z,17.70
2019-04-30T23:53:49.899Z,17.70
2019-04-30T23:56:19.290Z,17.60
2019-04-30T23:58:48.658Z,17.60
